Flight Track Log - Related Links

Times and Time Zones

All times are in EDT time to prevent confusion due to time zone crossing. See the AAL1261 flight status page for this flight to view local times or setup timezone preferences in your user account.

Time Position Orientation Groundspeed Altitude Reporting Facility
EDT Latitude Longitude Course Direction KTS MPH feet Rate Location/Type
Mon 08:58:10 PM 38.8833 -77.0500 169° South 160 184 1,300  Level Potomac TRACON
Mon 08:59:05 PM 38.9000 -77.0833 303° West 177 204 2,900 1,686 Climbing Potomac TRACON
Mon 09:00:00 PM 38.5679 -76.7345 142° Southeast  Level FlightAware Approximate
Mon 09:00:11 PM 38.9500 -77.1500 314° West 245 282 4,700  Level Potomac TRACON
Mon 09:01:00 PM 38.4502 -76.7000 171° South  Level FlightAware Approximate
Mon 09:01:11 PM 39.0167 -77.1833 339° North 268 308 7,500  Level Potomac TRACON
Mon 09:02:00 PM 38.3398 -76.6833 180° South  Level FlightAware Approximate
Mon 09:02:05 PM 39.0667 -77.1333 38° Northeast 284 327 9,900  Level Potomac TRACON
Mon 09:03:00 PM 38.2175 -76.6669 169° South  Level FlightAware Approximate
Mon 09:04:11 PM 38.9283 -76.9844 140° Southeast 350 403 14,100  Level Washington Center
Mon 09:05:10 PM 38.8353 -76.9189 151° Southeast 363 418 16,800 2,471 Climbing Washington Center
Mon 09:06:10 PM 38.7358 -76.8478 151° Southeast 381 438 19,000 1,109 Climbing Washington Center
Mon 09:07:09 PM 38.6322 -76.7797 153° Southeast 404 465 19,000 655 Level Washington Center
Mon 09:08:09 PM 38.5286 -76.7222 157° South 404 465 20,300 1,835 Climbing Washington Center
Mon 09:09:10 PM 38.4078 -76.7044 173° South 411 473 22,700 2,066 Climbing Washington Center
Mon 09:10:11 PM 38.2767 -76.6842 173° South 428 493 24,500 1,835 Climbing Washington Center
Mon 09:11:11 PM 38.1517 -76.6692 175° South 439 505 26,400 1,881 Climbing Washington Center
Mon 09:12:09 PM 38.0289 -76.6542 175° South 450 518 28,200 1,765 Climbing Washington Center
Mon 09:13:10 PM 37.8975 -76.6364 174° South 461 531 29,900 1,967 Climbing Washington Center
Mon 09:14:11 PM 37.7683 -76.6189 174° South 466 536 32,200 2,118 Climbing Washington Center
Mon 09:15:09 PM 37.6433 -76.6017 174° South 461 531 34,100 1,743 Climbing Washington Center
Mon 09:17:10 PM 37.3933 -76.5694 174° South 461 531 37,400 1,549 Climbing Washington Center
Mon 09:18:11 PM 37.2683 -76.5522 174° South 461 531 38,800 1,311 Climbing Washington Center
Mon 09:19:09 PM 37.1453 -76.5378 175° South 456 525 40,000 610 Climbing Washington Center
Mon 09:20:09 PM 37.0244 -76.5233 175° South 451 519 40,000  Level Washington Center
Mon 09:21:10 PM 36.9033 -76.5347 184° South 446 513 40,000  Level Washington Center
Mon 09:22:11 PM 36.7842 -76.5800 197° South 438 504 40,000  Level Washington Center
Mon 09:23:09 PM 36.6775 -76.6228 198° South 443 510 40,000  Level Washington Center
Mon 09:24:09 PM 36.5603 -76.6678 197° South 449 517 40,000  Level Washington Center
Mon 09:25:10 PM 36.4408 -76.7100 196° South 449 517 40,000  Level Washington Center
Mon 09:26:11 PM 36.3172 -76.7544 196° South 454 522 40,000  Level Washington Center
Mon 09:27:09 PM 36.1958 -76.7992 197° South 460 529 40,000  Level Washington Center
Mon 09:28:09 PM 36.0764 -76.8436 197° South 460 529 40,000  Level Washington Center
Mon 09:29:10 PM 35.9550 -76.8853 196° South 460 529 40,000  Level Washington Center
Mon 09:30:11 PM 35.8356 -76.9294 197° South 460 529 40,000 -50 Level Washington Center
Mon 09:31:09 PM 35.7119 -76.9683 194° South 460 529 39,900  Descending Washington Center
Mon 09:32:09 PM 35.5967 -77.0150 198° South 455 524 40,000 50 Climbing Washington Center
Mon 09:33:10 PM 35.4753 -77.0561 195° South 455 524 40,000  Level Washington Center
Mon 09:34:11 PM 35.3536 -77.0997 196° South 455 524 40,000  Level Washington Center
Mon 09:35:09 PM 35.2322 -77.1431 196° South 460 529 40,000  Level Washington Center
Mon 09:36:09 PM 35.1106 -77.1867 196° South 460 529 40,000  Level Washington Center
Mon 09:37:10 PM 34.9931 -77.2275 196° South 460 529 40,000  Level Washington Center
Mon 09:38:10 PM 34.8717 -77.2706 196° South 455 524 40,000  Level Washington Center
Mon 09:39:11 PM 34.7583 -77.3136 197° South 454 522 40,000 -50 Level Washington Center
Mon 09:40:11 PM 34.6386 -77.3539 195° South 448 516 39,900  Descending Washington Center
Mon 09:41:09 PM 34.5192 -77.3969 197° South 448 516 40,000 50 Climbing Washington Center
Mon 09:42:10 PM 34.3997 -77.4394 196° South 448 516 40,000 -49 Level Washington Center
Mon 09:43:11 PM 34.2800 -77.4794 195° South 448 516 39,900  Descending Washington Center
Mon 09:45:14 PM 34.0100 -77.5717 196° South 444 511 40,000 33 Climbing Jacksonville Center
Mon 09:46:14 PM 33.8864 -77.6117 195° South 454 522 40,000  Level Jacksonville Center
Mon 09:47:14 PM 33.7633 -77.6567 197° South 460 529 40,000 -50 Level Jacksonville Center
Mon 09:48:14 PM 33.6378 -77.6992 196° South 466 536 39,900 -50 Descending Jacksonville Center
Mon 09:49:14 PM 33.5286 -77.7353 195° South 466 536 39,900 50 Level Jacksonville Center
Mon 09:50:14 PM 33.4053 -77.7797 197° South 466 536 40,000  Climbing Jacksonville Center
Mon 09:51:14 PM 33.2817 -77.8217 196° South 466 536 39,900  Descending Jacksonville Center
Mon 09:52:14 PM 33.1581 -77.8633 196° South 466 536 40,000 50 Climbing Jacksonville Center
Mon 09:53:14 PM 33.0347 -77.9050 196° South 466 536 40,000  Level Jacksonville Center
Mon 09:54:14 PM 32.9108 -77.9442 195° South 466 536 40,000  Level Jacksonville Center
Mon 09:55:14 PM 32.7894 -77.9878 197° South 466 536 40,000  Level Jacksonville Center
Mon 09:56:14 PM 32.6658 -78.0292 196° South 466 536 40,000 -50 Level Jacksonville Center
Mon 09:57:14 PM 32.5464 -78.0675 195° South 461 531 39,900 -50 Descending Jacksonville Center
Mon 09:58:14 PM 32.4247 -78.1083 196° South 461 531 39,900 50 Level Jacksonville Center
Mon 09:59:14 PM 32.3053 -78.1492 196° South 456 525 40,000 50 Climbing Jacksonville Center
Mon 10:00:14 PM 32.1856 -78.1897 196° South 450 518 40,000 -50 Level Jacksonville Center
Mon 10:01:14 PM 32.0639 -78.2278 195° South 450 518 39,900 -50 Descending Jacksonville Center
Mon 10:02:14 PM 31.9342 -78.2736 197° South 450 518 39,900 50 Level Jacksonville Center
Mon 10:03:14 PM 31.8106 -78.3164 196° South 456 525 40,000  Climbing Jacksonville Center
Mon 10:04:14 PM 31.6886 -78.3567 196° South 456 525 39,900  Descending Jacksonville Center
Mon 10:05:14 PM 31.5669 -78.3942 195° South 453 521 40,000 50 Climbing Jacksonville Center
Mon 10:06:14 PM 31.4472 -78.4339 196° South 453 521 40,000  Level Jacksonville Center
Mon 10:07:14 PM 31.3256 -78.4739 196° South 453 521 40,000  Level Jacksonville Center
Mon 10:08:14 PM 31.2036 -78.5136 196° South 453 521 40,000 -50 Level Jacksonville Center
Mon 10:09:14 PM 31.0797 -78.5533 195° South 453 521 39,900  Descending Jacksonville Center
Mon 10:10:14 PM 30.9539 -78.5931 195° South 462 532 40,000 50 Climbing Jacksonville Center
Mon 10:11:14 PM 30.8319 -78.6347 196° South 467 537 40,000  Level Jacksonville Center
Mon 10:12:54 PM 30.6250 -78.6992 195° South 464 534 40,000  Level Miami Center
Mon 10:13:54 PM 30.5017 -78.7211 189° South 457 526 40,000 -50 Level Miami Center
Mon 10:14:54 PM 30.3681 -78.7428 188° South 463 533 39,900  Descending Miami Center
Mon 10:15:54 PM 30.2511 -78.7622 188° South 457 526 40,000 50 Climbing Miami Center
Mon 10:16:54 PM 30.1278 -78.7842 189° South 457 526 40,000  Level Miami Center
Mon 10:17:54 PM 30.0147 -78.8061 190° South 452 520 40,000  Level Miami Center
Mon 10:18:54 PM 29.8978 -78.8303 190° South 443 510 40,000  Level Miami Center
Mon 10:19:54 PM 29.7786 -78.8544 190° South 445 512 40,000  Level Miami Center
Mon 10:20:54 PM 29.6492 -78.8664 185° South 451 519 40,000  Level Miami Center
Mon 10:21:54 PM 29.5258 -78.8808 186° South 460 529 40,000  Level Miami Center
Mon 10:22:54 PM 29.4025 -78.8975 187° South 455 524 40,000 -250 Level Miami Center
Mon 10:23:54 PM 29.2792 -78.9142 187° South 456 525 39,500 -700 Descending Miami Center
Mon 10:24:54 PM 29.1539 -78.9308 187° South 461 531 38,600 -950 Descending Miami Center
Mon 10:25:54 PM 29.0325 -78.9453 186° South 456 525 37,600 -950 Descending Miami Center
Mon 10:26:54 PM 28.9072 -78.9642 188° South 456 525 36,700 -950 Descending Miami Center
Mon 10:27:54 PM 28.7797 -78.9783 186° South 456 525 35,700 -950 Descending Miami Center
Mon 10:28:54 PM 28.6542 -78.9950 187° South 461 531 34,800 -950 Descending Miami Center
Mon 10:29:54 PM 28.5244 -79.0114 186° South 468 539 33,800 -1,000 Descending Miami Center
Mon 10:30:54 PM 28.4011 -79.0303 188° South 463 533 32,800 -950 Descending Miami Center
Mon 10:31:54 PM 28.2756 -79.0561 190° South 463 533 31,900 -850 Descending Miami Center
Mon 10:32:54 PM 28.1517 -79.0914 194° South 468 539 31,100 -1,200 Descending Miami Center
Mon 10:33:54 PM 28.0469 -79.1269 197° South 437 503 29,500 -1,550 Descending Miami Center
Mon 10:34:54 PM 27.9397 -79.1600 195° South 412 474 28,000 -750 Descending Miami Center
Mon 10:35:54 PM 27.8264 -79.1953 195° South 393 452 28,000 -200 Level Miami Center
Mon 10:36:54 PM 27.7217 -79.2283 196° South 393 452 27,600 -900 Descending Miami Center
Mon 10:37:54 PM 27.6167 -79.2592 195° South 398 458 26,200 -1,050 Descending Miami Center
Mon 10:38:54 PM 27.5244 -79.2875 195° South 398 458 25,500 -600 Descending Miami Center
Mon 10:39:54 PM 27.4236 -79.3183 195° South 392 451 25,000 -450 Descending Miami Center
Mon 10:40:54 PM 27.2997 -79.3553 195° South 404 465 24,600 -500 Descending Miami Center
Mon 10:41:54 PM 27.1864 -79.3925 196° South 428 493 24,000 -900 Descending Miami Center
Mon 10:42:54 PM 27.0789 -79.4461 204° Southwest 434 499 22,800 -1,250 Descending Miami Center
Mon 10:43:54 PM 26.9800 -79.4906 202° Southwest 417 480 21,500 -1,250 Descending Miami Center
Mon 10:44:54 PM 26.8725 -79.5417 203° Southwest 417 480 20,300 -1,300 Descending Miami Center
Mon 10:45:54 PM 26.7567 -79.5950 202° Southwest 422 486 18,900 -1,389 Descending Miami Center
Mon 10:46:29 PM 26.6975 -79.6239 204° Southwest 402 463 18,100 -1,313 Descending Miami Center
Mon 10:47:30 PM 26.5900 -79.6747 203° Southwest 392 451 16,800 -1,082 Descending Miami Center
Mon 10:48:31 PM 26.4889 -79.7233 203° Southwest 384 442 15,900 -393 Descending Miami Center
Mon 10:49:32 PM 26.4203 -79.8122 229° Southwest 386 444 16,000 -934 Climbing Miami Center
Mon 10:50:33 PM 26.3558 -79.9033 232° Southwest 377 434 14,000 -2,115 Descending Miami Center
Mon 10:51:34 PM 26.2808 -79.9825 223° Southwest 365 420 11,700 -2,033 Descending Miami Center
Mon 10:52:34 PM 26.1922 -80.0333 207° Southwest 341 392 9,900 -850 Descending Miami Center
Mon 10:53:41 PM 26.0911 -80.0608 194° South 340 391 9,900 -234 Level Miami Center
Mon 10:54:42 PM 26.0072 -80.0839 194° South 288 331 9,400 -590 Descending Miami Center
Mon 10:55:43 PM 25.9433 -80.1308 213° Southwest 296 341 8,700 -656 Descending Miami Center
Mon 10:56:50 PM 25.9039 -80.2175 243° Southwest 289 333 8,000 -609 Descending Miami Center
Mon 10:57:51 PM 25.8811 -80.2975 252° West 262 302 7,400 -1,091 Descending Miami Center
Mon 10:58:40 PM 25.8775 -80.3644 267° West 240 276 6,000 -1,761 Descending Miami Center
Mon 10:59:40 PM 25.8714 -80.4428 265° West 248 285 4,200 -1,465 Descending Miami Center
Mon 11:00:47 PM 25.8425 -80.5111 245° Southwest 224 258 2,900 -563 Descending Miami Center
Mon 11:01:48 PM 25.7842 -80.5094 179° South 207 238 3,000 98 Climbing Miami Center

Login

Don't have an account? Register now (free) for customized features, flight alerts, and more!